sensor_id;sensor_type;location;lat;lon;timestamp;P1;durP1;ratioP1;P2;durP2;ratioP2
7334;SDS011;3708;42.632;23.378;2024-01-07T00:04:33;4.05;;;3.40;;
7334;SDS011;3708;42.632;23.378;2024-01-07T00:07:08;4.13;;;3.15;;
7334;SDS011;3708;42.632;23.378;2024-01-07T00:09:34;7.00;;;4.00;;
7334;SDS011;3708;42.632;23.378;2024-01-07T00:11:59;3.58;;;3.28;;
7334;SDS011;3708;42.632;23.378;2024-01-07T00:14:28;3.72;;;3.10;;
7334;SDS011;3708;42.632;23.378;2024-01-07T00:16:53;3.95;;;3.40;;
7334;SDS011;3708;42.632;23.378;2024-01-07T00:19:19;5.47;;;3.08;;
7334;SDS011;3708;42.632;23.378;2024-01-07T00:21:44;3.55;;;3.25;;
7334;SDS011;3708;42.632;23.378;2024-01-07T00:24:10;5.32;;;3.85;;
7334;SDS011;3708;42.632;23.378;2024-01-07T00:26:36;5.35;;;3.92;;
7334;SDS011;3708;42.632;23.378;2024-01-07T00:29:01;4.95;;;3.92;;
7334;SDS011;3708;42.632;23.378;2024-01-07T00:31:27;7.07;;;3.75;;
7334;SDS011;3708;42.632;23.378;2024-01-07T00:33:52;5.53;;;3.35;;
7334;SDS011;3708;42.632;23.378;2024-01-07T00:36:18;4.90;;;3.58;;
7334;SDS011;3708;42.632;23.378;2024-01-07T00:38:43;6.07;;;3.88;;
7334;SDS011;3708;42.632;23.378;2024-01-07T00:41:09;5.28;;;3.90;;
7334;SDS011;3708;42.632;23.378;2024-01-07T00:43:34;4.40;;;3.70;;
7334;SDS011;3708;42.632;23.378;2024-01-07T00:46:00;5.80;;;3.83;;
7334;SDS011;3708;42.632;23.378;2024-01-07T00:48:25;5.28;;;3.80;;
7334;SDS011;3708;42.632;23.378;2024-01-07T00:50:51;4.78;;;4.25;;
7334;SDS011;3708;42.632;23.378;2024-01-07T00:53:16;7.18;;;3.85;;
7334;SDS011;3708;42.632;23.378;2024-01-07T00:55:42;7.75;;;3.72;;
7334;SDS011;3708;42.632;23.378;2024-01-07T00:58:08;4.38;;;3.63;;
7334;SDS011;3708;42.632;23.378;2024-01-07T01:00:34;4.93;;;4.00;;
7334;SDS011;3708;42.632;23.378;2024-01-07T01:02:59;5.93;;;4.18;;
7334;SDS011;3708;42.632;23.378;2024-01-07T01:05:25;6.55;;;4.22;;
7334;SDS011;3708;42.632;23.378;2024-01-07T01:07:50;4.97;;;4.47;;
7334;SDS011;3708;42.632;23.378;2024-01-07T01:10:17;4.55;;;4.10;;
7334;SDS011;3708;42.632;23.378;2024-01-07T01:12:43;7.22;;;4.40;;
7334;SDS011;3708;42.632;23.378;2024-01-07T01:15:09;4.00;;;3.53;;
7334;SDS011;3708;42.632;23.378;2024-01-07T01:17:35;12.25;;;4.60;;
7334;SDS011;3708;42.632;23.378;2024-01-07T01:20:01;6.53;;;4.50;;
7334;SDS011;3708;42.632;23.378;2024-01-07T01:22:26;5.40;;;4.22;;
7334;SDS011;3708;42.632;23.378;2024-01-07T01:24:52;12.93;;;4.60;;
7334;SDS011;3708;42.632;23.378;2024-01-07T01:27:18;9.00;;;4.40;;
7334;SDS011;3708;42.632;23.378;2024-01-07T01:29:44;7.88;;;4.57;;
7334;SDS011;3708;42.632;23.378;2024-01-07T01:32:10;7.75;;;4.45;;
7334;SDS011;3708;42.632;23.378;2024-01-07T01:34:35;4.70;;;4.10;;
7334;SDS011;3708;42.632;23.378;2024-01-07T01:37:01;5.35;;;4.82;;
7334;SDS011;3708;42.632;23.378;2024-01-07T01:39:28;7.10;;;4.82;;
7334;SDS011;3708;42.632;23.378;2024-01-07T01:44:19;6.95;;;4.57;;
7334;SDS011;3708;42.632;23.378;2024-01-07T01:46:45;5.85;;;4.60;;
7334;SDS011;3708;42.632;23.378;2024-01-07T01:51:37;10.10;;;5.70;;
7334;SDS011;3708;42.632;23.378;2024-01-07T01:54:03;8.07;;;5.20;;
7334;SDS011;3708;42.632;23.378;2024-01-07T01:56:28;8.07;;;5.05;;
7334;SDS011;3708;42.632;23.378;2024-01-07T01:58:54;7.05;;;5.15;;
7334;SDS011;3708;42.632;23.378;2024-01-07T02:01:21;6.70;;;4.35;;
7334;SDS011;3708;42.632;23.378;2024-01-07T02:03:48;9.20;;;3.75;;
7334;SDS011;3708;42.632;23.378;2024-01-07T02:06:13;3.92;;;2.78;;
7334;SDS011;3708;42.632;23.378;2024-01-07T02:08:41;4.55;;;3.28;;
7334;SDS011;3708;42.632;23.378;2024-01-07T02:11:16;6.68;;;2.78;;
7334;SDS011;3708;42.632;23.378;2024-01-07T02:13:45;2.95;;;2.60;;
7334;SDS011;3708;42.632;23.378;2024-01-07T02:16:11;4.57;;;3.35;;
7334;SDS011;3708;42.632;23.378;2024-01-07T02:18:41;3.05;;;2.75;;
7334;SDS011;3708;42.632;23.378;2024-01-07T02:21:12;4.82;;;2.67;;
7334;SDS011;3708;42.632;23.378;2024-01-07T02:23:38;2.88;;;2.40;;
7334;SDS011;3708;42.632;23.378;2024-01-07T02:26:04;5.70;;;2.53;;
7334;SDS011;3708;42.632;23.378;2024-01-07T02:28:31;3.17;;;2.55;;
7334;SDS011;3708;42.632;23.378;2024-01-07T02:31:00;2.95;;;2.42;;
7334;SDS011;3708;42.632;23.378;2024-01-07T02:33:26;3.22;;;2.42;;
7334;SDS011;3708;42.632;23.378;2024-01-07T02:35:51;2.95;;;2.63;;
7334;SDS011;3708;42.632;23.378;2024-01-07T02:38:17;3.70;;;2.90;;
7334;SDS011;3708;42.632;23.378;2024-01-07T02:40:42;2.55;;;2.28;;
7334;SDS011;3708;42.632;23.378;2024-01-07T02:43:08;2.13;;;2.03;;
7334;SDS011;3708;42.632;23.378;2024-01-07T02:45:34;2.40;;;2.20;;
7334;SDS011;3708;42.632;23.378;2024-01-07T02:47:59;4.07;;;2.38;;
7334;SDS011;3708;42.632;23.378;2024-01-07T02:50:25;1.83;;;1.73;;
7334;SDS011;3708;42.632;23.378;2024-01-07T02:52:50;3.85;;;2.35;;
7334;SDS011;3708;42.632;23.378;2024-01-07T02:55:16;4.07;;;2.33;;
7334;SDS011;3708;42.632;23.378;2024-01-07T02:57:42;2.42;;;2.22;;
7334;SDS011;3708;42.632;23.378;2024-01-07T03:00:08;2.42;;;2.22;;
7334;SDS011;3708;42.632;23.378;2024-01-07T03:02:33;3.67;;;2.60;;
7334;SDS011;3708;42.632;23.378;2024-01-07T03:04:59;6.07;;;3.80;;
7334;SDS011;3708;42.632;23.378;2024-01-07T03:07:25;6.95;;;4.50;;
7334;SDS011;3708;42.632;23.378;2024-01-07T03:09:50;3.75;;;3.45;;
7334;SDS011;3708;42.632;23.378;2024-01-07T03:12:16;4.95;;;3.85;;
7334;SDS011;3708;42.632;23.378;2024-01-07T03:14:42;8.07;;;4.40;;
7334;SDS011;3708;42.632;23.378;2024-01-07T03:17:09;3.83;;;3.45;;
7334;SDS011;3708;42.632;23.378;2024-01-07T03:19:35;5.15;;;4.03;;
7334;SDS011;3708;42.632;23.378;2024-01-07T03:22:00;3.63;;;3.35;;
7334;SDS011;3708;42.632;23.378;2024-01-07T03:24:26;3.80;;;3.33;;
7334;SDS011;3708;42.632;23.378;2024-01-07T03:26:51;5.22;;;3.30;;
7334;SDS011;3708;42.632;23.378;2024-01-07T03:29:17;4.50;;;3.20;;
7334;SDS011;3708;42.632;23.378;2024-01-07T03:31:42;6.50;;;4.32;;
7334;SDS011;3708;42.632;23.378;2024-01-07T03:34:08;4.82;;;3.75;;
7334;SDS011;3708;42.632;23.378;2024-01-07T03:36:33;6.55;;;3.35;;
7334;SDS011;3708;42.632;23.378;2024-01-07T03:38:59;7.20;;;2.95;;
7334;SDS011;3708;42.632;23.378;2024-01-07T03:41:25;6.03;;;3.30;;
7334;SDS011;3708;42.632;23.378;2024-01-07T03:43:50;3.20;;;2.90;;
7334;SDS011;3708;42.632;23.378;2024-01-07T03:46:17;3.15;;;2.92;;
7334;SDS011;3708;42.632;23.378;2024-01-07T03:48:43;3.83;;;3.50;;
7334;SDS011;3708;42.632;23.378;2024-01-07T03:51:10;5.43;;;4.00;;
7334;SDS011;3708;42.632;23.378;2024-01-07T03:53:35;4.15;;;3.17;;
7334;SDS011;3708;42.632;23.378;2024-01-07T03:56:01;5.20;;;3.40;;
7334;SDS011;3708;42.632;23.378;2024-01-07T03:58:26;4.20;;;3.65;;
7334;SDS011;3708;42.632;23.378;2024-01-07T04:00:52;6.03;;;3.38;;
7334;SDS011;3708;42.632;23.378;2024-01-07T04:03:17;5.55;;;3.08;;
7334;SDS011;3708;42.632;23.378;2024-01-07T04:05:43;3.42;;;3.20;;
7334;SDS011;3708;42.632;23.378;2024-01-07T04:08:10;6.47;;;3.67;;
7334;SDS011;3708;42.632;23.378;2024-01-07T04:10:37;3.38;;;3.10;;
7334;SDS011;3708;42.632;23.378;2024-01-07T04:13:03;3.15;;;2.83;;
7334;SDS011;3708;42.632;23.378;2024-01-07T04:15:31;2.38;;;2.17;;
7334;SDS011;3708;42.632;23.378;2024-01-07T04:17:56;3.20;;;2.70;;
7334;SDS011;3708;42.632;23.378;2024-01-07T04:20:25;2.92;;;2.72;;
7334;SDS011;3708;42.632;23.378;2024-01-07T04:22:51;3.92;;;3.55;;
7334;SDS011;3708;42.632;23.378;2024-01-07T04:25:17;4.78;;;4.28;;
7334;SDS011;3708;42.632;23.378;2024-01-07T04:27:42;8.30;;;5.43;;
7334;SDS011;3708;42.632;23.378;2024-01-07T04:30:08;11.43;;;5.53;;
7334;SDS011;3708;42.632;23.378;2024-01-07T04:32:34;5.22;;;4.72;;
7334;SDS011;3708;42.632;23.378;2024-01-07T04:35:00;8.30;;;6.75;;
7334;SDS011;3708;42.632;23.378;2024-01-07T04:37:25;10.55;;;6.63;;
7334;SDS011;3708;42.632;23.378;2024-01-07T04:39:51;10.23;;;6.47;;
7334;SDS011;3708;42.632;23.378;2024-01-07T04:42:17;8.75;;;6.65;;
7334;SDS011;3708;42.632;23.378;2024-01-07T04:44:43;11.68;;;7.03;;
7334;SDS011;3708;42.632;23.378;2024-01-07T04:47:25;9.45;;;5.32;;
7334;SDS011;3708;42.632;23.378;2024-01-07T04:49:54;8.13;;;6.18;;
7334;SDS011;3708;42.632;23.378;2024-01-07T04:52:23;12.05;;;6.55;;
7334;SDS011;3708;42.632;23.378;2024-01-07T04:54:50;11.60;;;6.68;;
7334;SDS011;3708;42.632;23.378;2024-01-07T04:57:16;8.50;;;5.70;;
7334;SDS011;3708;42.632;23.378;2024-01-07T04:59:42;6.25;;;4.40;;
7334;SDS011;3708;42.632;23.378;2024-01-07T05:02:07;6.15;;;5.57;;
7334;SDS011;3708;42.632;23.378;2024-01-07T05:04:33;10.00;;;6.72;;
7334;SDS011;3708;42.632;23.378;2024-01-07T05:06:59;9.25;;;5.95;;
7334;SDS011;3708;42.632;23.378;2024-01-07T05:09:25;10.95;;;5.80;;
7334;SDS011;3708;42.632;23.378;2024-01-07T05:11:50;7.97;;;5.78;;
7334;SDS011;3708;42.632;23.378;2024-01-07T05:14:16;7.55;;;5.03;;
7334;SDS011;3708;42.632;23.378;2024-01-07T05:16:41;7.95;;;5.60;;
7334;SDS011;3708;42.632;23.378;2024-01-07T05:19:07;5.55;;;5.07;;
7334;SDS011;3708;42.632;23.378;2024-01-07T05:21:32;6.95;;;5.55;;
7334;SDS011;3708;42.632;23.378;2024-01-07T05:23:58;8.80;;;5.18;;
7334;SDS011;3708;42.632;23.378;2024-01-07T05:26:23;5.45;;;4.78;;
7334;SDS011;3708;42.632;23.378;2024-01-07T05:28:49;7.32;;;4.88;;
7334;SDS011;3708;42.632;23.378;2024-01-07T05:31:15;7.40;;;6.05;;
7334;SDS011;3708;42.632;23.378;2024-01-07T05:33:41;11.27;;;7.25;;
7334;SDS011;3708;42.632;23.378;2024-01-07T05:36:08;16.35;;;8.63;;
7334;SDS011;3708;42.632;23.378;2024-01-07T05:38:33;15.38;;;8.88;;
7334;SDS011;3708;42.632;23.378;2024-01-07T05:40:59;15.25;;;8.85;;
7334;SDS011;3708;42.632;23.378;2024-01-07T05:43:24;16.33;;;8.50;;
7334;SDS011;3708;42.632;23.378;2024-01-07T05:45:50;15.70;;;9.60;;
7334;SDS011;3708;42.632;23.378;2024-01-07T05:48:15;19.40;;;9.43;;
7334;SDS011;3708;42.632;23.378;2024-01-07T05:50:41;18.95;;;9.00;;
7334;SDS011;3708;42.632;23.378;2024-01-07T05:53:06;10.15;;;8.25;;
7334;SDS011;3708;42.632;23.378;2024-01-07T05:55:32;17.55;;;10.90;;
7334;SDS011;3708;42.632;23.378;2024-01-07T05:57:58;16.00;;;10.05;;
7334;SDS011;3708;42.632;23.378;2024-01-07T06:00:23;18.70;;;10.02;;
7334;SDS011;3708;42.632;23.378;2024-01-07T06:02:49;20.42;;;10.50;;
7334;SDS011;3708;42.632;23.378;2024-01-07T06:05:14;22.15;;;12.00;;
7334;SDS011;3708;42.632;23.378;2024-01-07T06:07:40;21.27;;;12.68;;
7334;SDS011;3708;42.632;23.378;2024-01-07T06:10:05;22.63;;;12.73;;
7334;SDS011;3708;42.632;23.378;2024-01-07T06:12:31;25.02;;;12.63;;
7334;SDS011;3708;42.632;23.378;2024-01-07T06:14:57;18.63;;;11.57;;
7334;SDS011;3708;42.632;23.378;2024-01-07T06:17:22;18.45;;;12.70;;
7334;SDS011;3708;42.632;23.378;2024-01-07T06:19:49;21.83;;;10.88;;
7334;SDS011;3708;42.632;23.378;2024-01-07T06:22:14;22.38;;;11.77;;
7334;SDS011;3708;42.632;23.378;2024-01-07T06:24:40;20.10;;;10.95;;
7334;SDS011;3708;42.632;23.378;2024-01-07T06:27:05;18.27;;;10.27;;
7334;SDS011;3708;42.632;23.378;2024-01-07T06:29:31;20.73;;;11.50;;
7334;SDS011;3708;42.632;23.378;2024-01-07T06:31:56;18.67;;;11.18;;
7334;SDS011;3708;42.632;23.378;2024-01-07T06:34:22;14.95;;;9.10;;
7334;SDS011;3708;42.632;23.378;2024-01-07T06:36:48;13.48;;;7.55;;
7334;SDS011;3708;42.632;23.378;2024-01-07T06:39:13;12.43;;;7.15;;
7334;SDS011;3708;42.632;23.378;2024-01-07T06:41:39;13.20;;;8.40;;
7334;SDS011;3708;42.632;23.378;2024-01-07T06:44:04;14.48;;;7.75;;
7334;SDS011;3708;42.632;23.378;2024-01-07T06:46:30;14.88;;;7.82;;
7334;SDS011;3708;42.632;23.378;2024-01-07T06:48:56;11.65;;;8.10;;
7334;SDS011;3708;42.632;23.378;2024-01-07T06:51:21;11.50;;;7.05;;
7334;SDS011;3708;42.632;23.378;2024-01-07T06:53:47;11.80;;;7.28;;
7334;SDS011;3708;42.632;23.378;2024-01-07T06:56:13;10.60;;;7.20;;
7334;SDS011;3708;42.632;23.378;2024-01-07T06:58:39;15.30;;;9.65;;
7334;SDS011;3708;42.632;23.378;2024-01-07T07:01:08;11.70;;;8.00;;
7334;SDS011;3708;42.632;23.378;2024-01-07T07:03:34;12.43;;;8.35;;
7334;SDS011;3708;42.632;23.378;2024-01-07T07:05:59;12.30;;;9.15;;
7334;SDS011;3708;42.632;23.378;2024-01-07T07:08:25;12.65;;;7.70;;
7334;SDS011;3708;42.632;23.378;2024-01-07T07:10:51;12.90;;;7.88;;
7334;SDS011;3708;42.632;23.378;2024-01-07T07:13:16;11.80;;;7.05;;
7334;SDS011;3708;42.632;23.378;2024-01-07T07:15:42;11.27;;;8.07;;
7334;SDS011;3708;42.632;23.378;2024-01-07T07:18:07;10.85;;;7.28;;
7334;SDS011;3708;42.632;23.378;2024-01-07T07:20:33;17.50;;;9.57;;
7334;SDS011;3708;42.632;23.378;2024-01-07T07:22:59;9.75;;;7.65;;
7334;SDS011;3708;42.632;23.378;2024-01-07T07:25:24;11.60;;;9.18;;
7334;SDS011;3708;42.632;23.378;2024-01-07T07:27:50;12.63;;;8.60;;
7334;SDS011;3708;42.632;23.378;2024-01-07T07:30:15;9.00;;;6.95;;
7334;SDS011;3708;42.632;23.378;2024-01-07T07:32:41;12.25;;;7.97;;
7334;SDS011;3708;42.632;23.378;2024-01-07T07:35:07;10.15;;;6.88;;
7334;SDS011;3708;42.632;23.378;2024-01-07T07:37:32;7.38;;;5.43;;
7334;SDS011;3708;42.632;23.378;2024-01-07T07:39:58;9.80;;;6.00;;
7334;SDS011;3708;42.632;23.378;2024-01-07T07:42:24;8.07;;;6.50;;
7334;SDS011;3708;42.632;23.378;2024-01-07T07:44:49;9.20;;;5.65;;
7334;SDS011;3708;42.632;23.378;2024-01-07T07:47:15;9.15;;;6.10;;
7334;SDS011;3708;42.632;23.378;2024-01-07T07:49:40;9.10;;;6.47;;
7334;SDS011;3708;42.632;23.378;2024-01-07T07:52:09;9.02;;;6.47;;
7334;SDS011;3708;42.632;23.378;2024-01-07T07:54:36;10.57;;;6.93;;
7334;SDS011;3708;42.632;23.378;2024-01-07T07:57:03;10.10;;;6.95;;
7334;SDS011;3708;42.632;23.378;2024-01-07T07:59:29;7.55;;;6.75;;
7334;SDS011;3708;42.632;23.378;2024-01-07T08:01:54;7.28;;;6.22;;
7334;SDS011;3708;42.632;23.378;2024-01-07T08:04:20;6.82;;;5.53;;
7334;SDS011;3708;42.632;23.378;2024-01-07T08:06:45;10.98;;;6.50;;
7334;SDS011;3708;42.632;23.378;2024-01-07T08:09:11;8.13;;;5.18;;
7334;SDS011;3708;42.632;23.378;2024-01-07T08:11:36;9.48;;;6.13;;
7334;SDS011;3708;42.632;23.378;2024-01-07T08:14:02;14.48;;;7.32;;
7334;SDS011;3708;42.632;23.378;2024-01-07T08:16:28;13.10;;;6.65;;
7334;SDS011;3708;42.632;23.378;2024-01-07T08:18:53;10.23;;;6.00;;
7334;SDS011;3708;42.632;23.378;2024-01-07T08:21:21;7.82;;;5.90;;
7334;SDS011;3708;42.632;23.378;2024-01-07T08:23:50;9.93;;;6.63;;
7334;SDS011;3708;42.632;23.378;2024-01-07T08:26:19;8.13;;;5.80;;
7334;SDS011;3708;42.632;23.378;2024-01-07T08:28:45;5.47;;;4.97;;
7334;SDS011;3708;42.632;23.378;2024-01-07T08:31:11;9.63;;;5.70;;
7334;SDS011;3708;42.632;23.378;2024-01-07T08:33:36;6.85;;;4.65;;
7334;SDS011;3708;42.632;23.378;2024-01-07T08:36:02;5.45;;;4.93;;
7334;SDS011;3708;42.632;23.378;2024-01-07T08:38:27;6.22;;;4.88;;
7334;SDS011;3708;42.632;23.378;2024-01-07T08:40:53;7.35;;;5.60;;
7334;SDS011;3708;42.632;23.378;2024-01-07T08:43:18;9.57;;;5.13;;
7334;SDS011;3708;42.632;23.378;2024-01-07T08:45:44;5.50;;;4.25;;
7334;SDS011;3708;42.632;23.378;2024-01-07T08:48:09;7.80;;;5.13;;
7334;SDS011;3708;42.632;23.378;2024-01-07T08:50:37;6.55;;;5.85;;
7334;SDS011;3708;42.632;23.378;2024-01-07T08:53:03;9.73;;;5.97;;
7334;SDS011;3708;42.632;23.378;2024-01-07T08:55:28;8.10;;;6.05;;
7334;SDS011;3708;42.632;23.378;2024-01-07T08:57:54;6.32;;;5.68;;
7334;SDS011;3708;42.632;23.378;2024-01-07T09:00:19;8.00;;;5.97;;
7334;SDS011;3708;42.632;23.378;2024-01-07T09:02:46;8.30;;;6.35;;
7334;SDS011;3708;42.632;23.378;2024-01-07T09:05:12;8.60;;;7.05;;
7334;SDS011;3708;42.632;23.378;2024-01-07T09:07:38;11.68;;;7.13;;
7334;SDS011;3708;42.632;23.378;2024-01-07T09:10:04;8.60;;;7.15;;
7334;SDS011;3708;42.632;23.378;2024-01-07T09:12:33;10.85;;;7.32;;
7334;SDS011;3708;42.632;23.378;2024-01-07T09:14:59;12.40;;;8.50;;
7334;SDS011;3708;42.632;23.378;2024-01-07T09:17:24;13.85;;;8.25;;
7334;SDS011;3708;42.632;23.378;2024-01-07T09:19:50;10.50;;;7.32;;
7334;SDS011;3708;42.632;23.378;2024-01-07T09:22:16;13.88;;;8.73;;
7334;SDS011;3708;42.632;23.378;2024-01-07T09:24:41;12.75;;;8.43;;
7334;SDS011;3708;42.632;23.378;2024-01-07T09:27:07;13.13;;;8.75;;
7334;SDS011;3708;42.632;23.378;2024-01-07T09:29:32;16.67;;;9.95;;
7334;SDS011;3708;42.632;23.378;2024-01-07T09:31:58;14.27;;;9.48;;
7334;SDS011;3708;42.632;23.378;2024-01-07T09:34:24;17.80;;;10.15;;
7334;SDS011;3708;42.632;23.378;2024-01-07T09:36:50;15.10;;;9.73;;
7334;SDS011;3708;42.632;23.378;2024-01-07T09:39:15;15.20;;;9.75;;
7334;SDS011;3708;42.632;23.378;2024-01-07T09:41:41;17.25;;;10.32;;
7334;SDS011;3708;42.632;23.378;2024-01-07T09:44:06;17.95;;;10.88;;
7334;SDS011;3708;42.632;23.378;2024-01-07T09:46:34;16.23;;;9.35;;
7334;SDS011;3708;42.632;23.378;2024-01-07T09:49:02;16.40;;;8.57;;
7334;SDS011;3708;42.632;23.378;2024-01-07T09:51:28;10.73;;;7.65;;
7334;SDS011;3708;42.632;23.378;2024-01-07T09:53:57;11.02;;;7.18;;
7334;SDS011;3708;42.632;23.378;2024-01-07T09:56:27;8.75;;;5.32;;
7334;SDS011;3708;42.632;23.378;2024-01-07T09:59:00;6.00;;;5.40;;
7334;SDS011;3708;42.632;23.378;2024-01-07T10:01:26;8.38;;;4.60;;
7334;SDS011;3708;42.632;23.378;2024-01-07T10:03:52;8.38;;;4.30;;
7334;SDS011;3708;42.632;23.378;2024-01-07T10:06:18;3.60;;;3.30;;
7334;SDS011;3708;42.632;23.378;2024-01-07T10:08:46;2.83;;;2.55;;
7334;SDS011;3708;42.632;23.378;2024-01-07T10:11:13;2.92;;;2.63;;
7334;SDS011;3708;42.632;23.378;2024-01-07T10:13:39;2.83;;;2.63;;
7334;SDS011;3708;42.632;23.378;2024-01-07T10:16:04;5.03;;;3.65;;
7334;SDS011;3708;42.632;23.378;2024-01-07T10:18:32;3.58;;;3.00;;
7334;SDS011;3708;42.632;23.378;2024-01-07T10:21:02;7.55;;;3.47;;
7334;SDS011;3708;42.632;23.378;2024-01-07T10:23:31;2.33;;;2.22;;
7334;SDS011;3708;42.632;23.378;2024-01-07T10:25:57;3.47;;;2.47;;
7334;SDS011;3708;42.632;23.378;2024-01-07T10:28:23;4.75;;;2.83;;
7334;SDS011;3708;42.632;23.378;2024-01-07T10:30:48;4.18;;;2.95;;
7334;SDS011;3708;42.632;23.378;2024-01-07T10:33:16;2.97;;;2.60;;
7334;SDS011;3708;42.632;23.378;2024-01-07T10:35:42;3.13;;;2.63;;
7334;SDS011;3708;42.632;23.378;2024-01-07T10:38:19;2.58;;;2.38;;
7334;SDS011;3708;42.632;23.378;2024-01-07T10:40:45;2.17;;;2.00;;
7334;SDS011;3708;42.632;23.378;2024-01-07T10:43:13;3.05;;;2.75;;
7334;SDS011;3708;42.632;23.378;2024-01-07T10:45:41;3.28;;;2.47;;
7334;SDS011;3708;42.632;23.378;2024-01-07T10:48:13;3.38;;;2.50;;
7334;SDS011;3708;42.632;23.378;2024-01-07T10:50:42;2.63;;;2.42;;
7334;SDS011;3708;42.632;23.378;2024-01-07T10:53:10;4.20;;;2.60;;
7334;SDS011;3708;42.632;23.378;2024-01-07T10:55:44;3.97;;;3.22;;
7334;SDS011;3708;42.632;23.378;2024-01-07T10:58:14;4.65;;;2.78;;
7334;SDS011;3708;42.632;23.378;2024-01-07T11:00:41;7.38;;;3.35;;
7334;SDS011;3708;42.632;23.378;2024-01-07T11:03:18;7.20;;;3.58;;
7334;SDS011;3708;42.632;23.378;2024-01-07T11:06:03;3.63;;;3.30;;
7334;SDS011;3708;42.632;23.378;2024-01-07T11:11:33;3.90;;;3.33;;
7334;SDS011;3708;42.632;23.378;2024-01-07T11:14:03;4.22;;;3.67;;
7334;SDS011;3708;42.632;23.378;2024-01-07T11:19:06;5.18;;;4.43;;
7334;SDS011;3708;42.632;23.378;2024-01-07T11:21:31;12.13;;;4.93;;
7334;SDS011;3708;42.632;23.378;2024-01-07T11:23:57;6.97;;;4.65;;
7334;SDS011;3708;42.632;23.378;2024-01-07T11:26:22;4.53;;;3.67;;
7334;SDS011;3708;42.632;23.378;2024-01-07T11:31:20;4.43;;;3.53;;
7334;SDS011;3708;42.632;23.378;2024-01-07T11:33:47;4.40;;;3.95;;
7334;SDS011;3708;42.632;23.378;2024-01-07T11:36:15;3.80;;;3.25;;
7334;SDS011;3708;42.632;23.378;2024-01-07T11:38:45;8.82;;;3.80;;
7334;SDS011;3708;42.632;23.378;2024-01-07T11:41:16;5.65;;;3.85;;
7334;SDS011;3708;42.632;23.378;2024-01-07T11:46:19;5.40;;;3.75;;
7334;SDS011;3708;42.632;23.378;2024-01-07T11:48:47;8.70;;;4.82;;
7334;SDS011;3708;42.632;23.378;2024-01-07T11:51:13;8.85;;;4.65;;
7334;SDS011;3708;42.632;23.378;2024-01-07T11:53:39;5.50;;;4.13;;
7334;SDS011;3708;42.632;23.378;2024-01-07T11:56:05;4.63;;;3.60;;
7334;SDS011;3708;42.632;23.378;2024-01-07T11:58:33;5.13;;;3.85;;
7334;SDS011;3708;42.632;23.378;2024-01-07T12:00:58;4.38;;;3.65;;
7334;SDS011;3708;42.632;23.378;2024-01-07T12:03:24;4.43;;;3.47;;
7334;SDS011;3708;42.632;23.378;2024-01-07T12:05:49;3.60;;;3.30;;
7334;SDS011;3708;42.632;23.378;2024-01-07T12:08:17;5.20;;;3.60;;
7334;SDS011;3708;42.632;23.378;2024-01-07T12:10:42;5.82;;;3.00;;
7334;SDS011;3708;42.632;23.378;2024-01-07T12:13:08;5.45;;;3.35;;
7334;SDS011;3708;42.632;23.378;2024-01-07T12:15:36;4.10;;;3.22;;
7334;SDS011;3708;42.632;23.378;2024-01-07T12:18:02;5.47;;;3.70;;
7334;SDS011;3708;42.632;23.378;2024-01-07T12:20:29;3.95;;;3.53;;
7334;SDS011;3708;42.632;23.378;2024-01-07T12:22:56;5.90;;;3.95;;
7334;SDS011;3708;42.632;23.378;2024-01-07T12:25:22;3.70;;;3.38;;
7334;SDS011;3708;42.632;23.378;2024-01-07T12:27:51;6.15;;;3.08;;
7334;SDS011;3708;42.632;23.378;2024-01-07T12:30:20;5.45;;;3.35;;
7334;SDS011;3708;42.632;23.378;2024-01-07T12:32:45;4.05;;;3.65;;
7334;SDS011;3708;42.632;23.378;2024-01-07T12:35:11;4.45;;;3.70;;
7334;SDS011;3708;42.632;23.378;2024-01-07T12:37:37;5.00;;;4.13;;
7334;SDS011;3708;42.632;23.378;2024-01-07T12:40:03;4.05;;;3.75;;
7334;SDS011;3708;42.632;23.378;2024-01-07T12:42:29;5.25;;;4.32;;
7334;SDS011;3708;42.632;23.378;2024-01-07T12:44:55;6.85;;;4.43;;
7334;SDS011;3708;42.632;23.378;2024-01-07T12:47:21;6.13;;;4.32;;
7334;SDS011;3708;42.632;23.378;2024-01-07T12:49:46;3.83;;;3.53;;
7334;SDS011;3708;42.632;23.378;2024-01-07T12:52:12;3.92;;;3.58;;
7334;SDS011;3708;42.632;23.378;2024-01-07T12:54:37;4.43;;;3.92;;
7334;SDS011;3708;42.632;23.378;2024-01-07T12:57:03;7.18;;;4.13;;
7334;SDS011;3708;42.632;23.378;2024-01-07T12:59:29;6.97;;;4.53;;
7334;SDS011;3708;42.632;23.378;2024-01-07T13:01:55;4.68;;;3.58;;
7334;SDS011;3708;42.632;23.378;2024-01-07T13:04:21;8.70;;;4.07;;
7334;SDS011;3708;42.632;23.378;2024-01-07T13:06:46;6.03;;;3.50;;
7334;SDS011;3708;42.632;23.378;2024-01-07T13:09:12;7.93;;;3.83;;
7334;SDS011;3708;42.632;23.378;2024-01-07T13:11:37;5.22;;;3.85;;
7334;SDS011;3708;42.632;23.378;2024-01-07T13:14:03;4.80;;;4.13;;
7334;SDS011;3708;42.632;23.378;2024-01-07T13:16:29;4.65;;;4.00;;
7334;SDS011;3708;42.632;23.378;2024-01-07T13:18:54;5.32;;;3.97;;
7334;SDS011;3708;42.632;23.378;2024-01-07T13:21:20;5.80;;;3.88;;
7334;SDS011;3708;42.632;23.378;2024-01-07T13:23:46;6.07;;;3.75;;
7334;SDS011;3708;42.632;23.378;2024-01-07T13:26:15;3.78;;;3.15;;
7334;SDS011;3708;42.632;23.378;2024-01-07T13:28:41;3.72;;;3.00;;
7334;SDS011;3708;42.632;23.378;2024-01-07T13:31:09;4.57;;;3.45;;
7334;SDS011;3708;42.632;23.378;2024-01-07T13:33:38;6.97;;;3.78;;
7334;SDS011;3708;42.632;23.378;2024-01-07T13:36:03;3.45;;;3.15;;
7334;SDS011;3708;42.632;23.378;2024-01-07T13:38:34;4.40;;;3.95;;
7334;SDS011;3708;42.632;23.378;2024-01-07T13:40:59;4.90;;;3.53;;
7334;SDS011;3708;42.632;23.378;2024-01-07T13:43:25;5.10;;;3.90;;
7334;SDS011;3708;42.632;23.378;2024-01-07T13:45:54;6.03;;;3.97;;
7334;SDS011;3708;42.632;23.378;2024-01-07T13:48:20;5.72;;;4.05;;
7334;SDS011;3708;42.632;23.378;2024-01-07T13:50:45;7.07;;;3.88;;
7334;SDS011;3708;42.632;23.378;2024-01-07T13:53:12;5.50;;;3.67;;
7334;SDS011;3708;42.632;23.378;2024-01-07T13:55:38;4.72;;;3.60;;
7334;SDS011;3708;42.632;23.378;2024-01-07T13:58:03;4.25;;;3.70;;
7334;SDS011;3708;42.632;23.378;2024-01-07T14:00:29;7.90;;;3.92;;
7334;SDS011;3708;42.632;23.378;2024-01-07T14:02:56;5.47;;;3.85;;
7334;SDS011;3708;42.632;23.378;2024-01-07T14:05:22;9.75;;;4.55;;
7334;SDS011;3708;42.632;23.378;2024-01-07T14:07:48;5.15;;;4.03;;
7334;SDS011;3708;42.632;23.378;2024-01-07T14:10:13;6.55;;;4.30;;
7334;SDS011;3708;42.632;23.378;2024-01-07T14:12:39;8.25;;;4.25;;
7334;SDS011;3708;42.632;23.378;2024-01-07T14:15:05;5.82;;;4.05;;
7334;SDS011;3708;42.632;23.378;2024-01-07T14:17:31;5.10;;;3.08;;
7334;SDS011;3708;42.632;23.378;2024-01-07T14:19:57;7.38;;;3.70;;
7334;SDS011;3708;42.632;23.378;2024-01-07T14:22:22;6.03;;;3.47;;
7334;SDS011;3708;42.632;23.378;2024-01-07T14:24:48;6.18;;;3.58;;
7334;SDS011;3708;42.632;23.378;2024-01-07T14:27:15;4.28;;;3.33;;
7334;SDS011;3708;42.632;23.378;2024-01-07T14:32:06;8.98;;;4.03;;
7334;SDS011;3708;42.632;23.378;2024-01-07T14:34:32;8.32;;;4.20;;
7334;SDS011;3708;42.632;23.378;2024-01-07T14:36:58;5.85;;;4.28;;
7334;SDS011;3708;42.632;23.378;2024-01-07T14:39:24;6.88;;;3.78;;
7334;SDS011;3708;42.632;23.378;2024-01-07T14:41:51;7.53;;;3.92;;
7334;SDS011;3708;42.632;23.378;2024-01-07T14:44:16;6.55;;;3.60;;
7334;SDS011;3708;42.632;23.378;2024-01-07T14:46:42;9.35;;;3.88;;
7334;SDS011;3708;42.632;23.378;2024-01-07T14:49:08;4.72;;;3.47;;
7334;SDS011;3708;42.632;23.378;2024-01-07T14:51:33;4.90;;;3.53;;
7334;SDS011;3708;42.632;23.378;2024-01-07T14:53:59;6.15;;;3.70;;
7334;SDS011;3708;42.632;23.378;2024-01-07T14:56:25;5.88;;;4.03;;
7334;SDS011;3708;42.632;23.378;2024-01-07T14:58:50;5.65;;;3.65;;
7334;SDS011;3708;42.632;23.378;2024-01-07T15:01:16;5.88;;;3.45;;
7334;SDS011;3708;42.632;23.378;2024-01-07T15:03:43;7.38;;;4.45;;
7334;SDS011;3708;42.632;23.378;2024-01-07T15:06:09;4.43;;;3.85;;
7334;SDS011;3708;42.632;23.378;2024-01-07T15:08:36;5.53;;;3.90;;
7334;SDS011;3708;42.632;23.378;2024-01-07T15:11:01;9.15;;;4.57;;
7334;SDS011;3708;42.632;23.378;2024-01-07T15:13:27;6.07;;;5.25;;